Time;durP1;ratioP1;P1;durP2;ratioP2;P2;SDS_P1;SDS_P2;PMS_P1;PMS_P2;Temp;Humidity;BMP_temperature;BMP_pressure;BME280_temperature;BME280_humidity;BME280_pressure;Samples;Min_cycle;Max_cycle;Signal;HPM_P1;HPM_P2
2021/12/04 00:02:24;;;;;;;18.92;11.23;;;5.20;99.90;;;;;;5094370;28;20118;-65
2021/12/04 00:04:52;;;;;;;18.83;10.55;;;5.40;99.90;;;;;;5093536;28;20044;-65
2021/12/04 00:07:18;;;;;;;16.35;10.00;;;5.60;99.90;;;;;;5093341;28;20102;-65
2021/12/04 00:09:50;;;;;;;16.23;9.55;;;5.50;99.90;;;;;;5093494;28;20040;-66
2021/12/04 00:12:17;;;;;;;15.48;9.00;;;5.10;99.90;;;;;;5092319;28;20044;-65
2021/12/04 00:14:45;;;;;;;16.20;9.85;;;5.20;99.90;;;;;;5092489;28;20093;-65
2021/12/04 00:17:11;;;;;;;17.65;9.95;;;5.70;99.90;;;;;;5092726;28;20079;-65
2021/12/04 00:19:36;;;;;;;17.02;9.98;;;5.70;99.90;;;;;;5093356;28;20479;-64
2021/12/04 00:22:04;;;;;;;14.88;9.40;;;5.20;99.90;;;;;;5075840;28;20127;-65
2021/12/04 00:24:29;;;;;;;15.73;9.52;;;5.10;99.90;;;;;;5075757;28;20438;-66
2021/12/04 00:26:55;;;;;;;17.95;9.88;;;5.20;99.90;;;;;;5093563;28;20094;-65
2021/12/04 00:29:23;;;;;;;13.38;8.95;;;5.10;99.90;;;;;;5076741;28;20059;-65
2021/12/04 00:31:51;;;;;;;15.02;9.90;;;5.70;99.90;;;;;;5097855;28;20353;-65
2021/12/04 00:34:18;;;;;;;15.13;9.38;;;5.70;99.90;;;;;;5097525;28;20044;-65
2021/12/04 00:50:29;;;;;;;;;;;5.20;99.90;;;;;;5034446;28;20164;-65
2021/12/04 00:52:56;;;;;;;19.15;11.48;;;5.70;99.90;;;;;;5034377;28;19921;-65
2021/12/04 00:55:22;;;;;;;21.67;12.07;;;5.20;99.90;;;;;;5062698;28;20083;-65
2021/12/04 00:57:48;;;;;;;21.02;11.75;;;5.10;99.90;;;;;;5097164;28;20196;-65
2021/12/04 01:00:14;;;;;;;22.75;11.75;;;5.20;99.90;;;;;;5095551;28;20052;-65
2021/12/04 01:02:42;;;;;;;17.55;10.50;;;5.10;99.90;;;;;;5096999;28;20047;-65
2021/12/04 01:05:08;;;;;;;21.30;11.73;;;5.20;99.90;;;;;;5095214;28;20059;-65
2021/12/04 01:07:34;;;;;;;18.95;11.50;;;5.60;99.90;;;;;;5096172;28;20052;-65
2021/12/04 01:10:01;;;;;;;21.70;12.10;;;5.20;99.90;;;;;;5096340;28;20052;-65
2021/12/04 01:12:27;;;;;;;21.02;11.73;;;5.20;99.90;;;;;;5096209;28;20047;-65
2021/12/04 01:14:53;;;;;;;23.95;12.63;;;5.50;99.90;;;;;;5096235;28;20047;-65
2021/12/04 01:17:18;;;;;;;20.35;11.52;;;5.30;99.90;;;;;;5096172;28;20044;-65
2021/12/04 01:19:44;;;;;;;21.33;12.45;;;5.10;99.90;;;;;;5096128;28;20104;-66
2021/12/04 01:22:11;;;;;;;22.10;11.60;;;5.10;99.90;;;;;;5096107;28;20138;-65
2021/12/04 01:24:36;;;;;;;20.40;11.93;;;5.20;99.90;;;;;;5078183;28;20089;-65
2021/12/04 01:27:03;;;;;;;22.35;11.45;;;5.50;99.90;;;;;;5094981;28;20044;-66
2021/12/04 01:29:28;;;;;;;22.13;11.68;;;5.10;99.90;;;;;;5095954;28;20495;-66
2021/12/04 01:31:54;;;;;;;24.05;12.27;;;5.30;99.90;;;;;;5095298;28;20047;-66
2021/12/04 01:34:20;;;;;;;21.38;11.38;;;5.20;99.90;;;;;;5095838;28;20051;-65
2021/12/04 01:36:45;;;;;;;20.45;11.38;;;5.30;99.90;;;;;;5096303;28;20463;-65
2021/12/04 01:39:11;;;;;;;18.15;10.40;;;5.10;99.90;;;;;;5095843;28;20048;-65
2021/12/04 01:41:37;;;;;;;23.90;11.73;;;5.20;99.90;;;;;;5094676;28;20059;-65
2021/12/04 01:44:05;;;;;;;19.25;11.10;;;5.30;99.90;;;;;;5094495;28;20047;-65
2021/12/04 01:46:33;;;;;;;20.63;10.60;;;5.80;99.90;;;;;;5095608;28;20097;-65
2021/12/04 01:48:59;;;;;;;21.27;11.20;;;5.20;99.90;;;;;;5061370;28;20040;-65
2021/12/04 01:51:25;;;;;;;20.70;11.98;;;5.20;99.90;;;;;;5094351;28;20127;-65
2021/12/04 01:53:50;;;;;;;18.10;10.55;;;5.30;99.90;;;;;;5096847;28;20460;-65
2021/12/04 01:56:17;;;;;;;25.27;11.60;;;5.60;99.90;;;;;;5116649;28;20048;-65
2021/12/04 01:58:44;;;;;;;21.10;10.93;;;5.20;99.90;;;;;;5097734;28;20476;-66
2021/12/04 02:01:10;;;;;;;22.13;11.63;;;5.10;99.90;;;;;;5115632;28;20055;-65
2021/12/04 02:03:36;;;;;;;20.35;11.02;;;5.10;99.90;;;;;;5097513;28;20047;-65
2021/12/04 02:06:02;;;;;;;21.45;11.75;;;5.90;99.90;;;;;;5115620;28;20447;-65
2021/12/04 02:08:28;;;;;;;19.17;10.82;;;5.20;99.90;;;;;;5098035;28;20131;-65
2021/12/04 02:10:57;;;;;;;21.23;10.85;;;5.10;99.90;;;;;;5098312;28;20046;-65
2021/12/04 02:13:24;;;;;;;22.42;11.10;;;5.70;99.90;;;;;;5115411;28;20036;-65
2021/12/04 02:15:51;;;;;;;18.63;10.98;;;5.20;99.90;;;;;;5115409;28;20048;-65
2021/12/04 02:18:19;;;;;;;22.10;11.10;;;5.20;99.90;;;;;;5097120;28;20087;-65
2021/12/04 02:20:45;;;;;;;21.08;11.15;;;5.30;99.90;;;;;;5115272;28;20039;-65
2021/12/04 02:23:11;;;;;;;20.88;11.32;;;5.20;99.90;;;;;;5097234;28;20092;-65
2021/12/04 02:25:38;;;;;;;23.35;11.85;;;5.20;99.90;;;;;;5096996;28;20192;-65
2021/12/04 02:28:07;;;;;;;22.05;10.57;;;5.40;99.90;;;;;;5096908;28;20043;-65
2021/12/04 02:30:36;;;;;;;22.50;10.50;;;5.20;99.90;;;;;;5114704;28;20498;-65
2021/12/04 02:33:13;;;;;;;21.25;10.43;;;5.40;99.90;;;;;;5096854;28;20376;-65
2021/12/04 02:35:49;;;;;;;20.88;10.98;;;5.20;99.90;;;;;;5098413;28;20081;-65
2021/12/04 02:38:16;;;;;;;17.08;9.98;;;5.20;99.90;;;;;;5115481;28;20039;-66
2021/12/04 02:40:43;;;;;;;21.25;10.98;;;5.20;99.90;;;;;;5096804;28;20100;-65
2021/12/04 02:43:10;;;;;;;19.25;10.32;;;5.30;99.90;;;;;;5097171;28;20529;-66
2021/12/04 02:45:36;;;;;;;21.13;10.32;;;5.70;99.90;;;;;;5097688;28;20387;-66
2021/12/04 02:48:02;;;;;;;20.70;10.48;;;5.40;99.90;;;;;;5115302;28;20040;-65
2021/12/04 02:50:28;;;;;;;18.88;9.88;;;5.20;99.90;;;;;;5114605;28;20135;-65
2021/12/04 02:52:53;;;;;;;15.98;9.30;;;5.10;99.90;;;;;;5079603;28;20054;-65
2021/12/04 02:55:19;;;;;;;18.48;9.82;;;5.10;99.90;;;;;;5079276;28;20087;-65
2021/12/04 02:57:46;;;;;;;17.90;9.13;;;5.40;99.90;;;;;;5096662;28;20406;-65
2021/12/04 03:00:21;;;;;;;16.67;9.27;;;5.10;99.90;;;;;;5115047;28;20452;-65
2021/12/04 03:02:47;;;;;;;19.08;10.35;;;5.10;99.90;;;;;;5097256;28;20094;-65
2021/12/04 03:05:14;;;;;;;17.65;9.80;;;6.10;99.90;;;;;;5096369;28;20125;-65
2021/12/04 03:07:40;;;;;;;15.45;9.20;;;5.10;99.90;;;;;;5113991;28;20083;-65
2021/12/04 03:10:08;;;;;;;19.63;10.50;;;5.20;99.90;;;;;;5114485;28;20093;-65
2021/12/04 03:12:35;;;;;;;19.40;10.30;;;5.10;99.90;;;;;;5096200;28;20548;-65
2021/12/04 03:15:02;;;;;;;19.10;9.85;;;5.10;99.90;;;;;;5114183;28;20043;-65
2021/12/04 03:17:28;;;;;;;16.85;9.40;;;5.50;99.90;;;;;;5114280;28;20035;-65
2021/12/04 03:19:54;;;;;;;16.30;9.27;;;5.10;99.90;;;;;;5079422;28;20130;-65
2021/12/04 03:22:22;;;;;;;17.98;10.23;;;5.90;99.90;;;;;;5114889;28;20096;-65
2021/12/04 03:24:48;;;;;;;18.25;10.43;;;5.70;99.90;;;;;;5096356;28;20059;-65
2021/12/04 03:27:16;;;;;;;17.77;10.32;;;5.40;99.90;;;;;;5114118;28;20163;-66
2021/12/04 03:29:47;;;;;;;18.65;9.85;;;5.20;99.90;;;;;;5097117;28;20047;-65
2021/12/04 03:43:00;;;;;;;15.90;9.23;;;5.30;99.90;;;;;;5114107;28;20135;-65
2021/12/04 03:45:25;;;;;;;15.90;9.23;;;5.50;99.90;;;;;;5114842;28;20047;-65
2021/12/04 03:47:56;;;;;;;15.00;9.25;;;5.40;99.90;;;;;;5062477;28;20494;-65
2021/12/04 03:50:21;;;;;;;15.02;8.98;;;6.10;99.90;;;;;;5097100;28;20082;-65
2021/12/04 03:52:47;;;;;;;17.00;9.10;;;5.90;99.90;;;;;;5113675;28;20074;-65
2021/12/04 03:55:13;;;;;;;16.25;8.85;;;5.00;99.90;;;;;;5114174;28;20051;-65
2021/12/04 03:57:44;;;;;;;13.30;8.32;;;5.10;99.90;;;;;;5113951;28;20403;-66
2021/12/04 04:00:12;;;;;;;12.65;8.13;;;5.20;99.90;;;;;;5114021;28;20083;-66
2021/12/04 04:02:38;;;;;;;14.75;8.50;;;5.10;99.90;;;;;;5096085;28;20476;-65
2021/12/04 04:05:05;;;;;;;13.73;8.35;;;5.50;99.90;;;;;;5117043;28;20035;-65
2021/12/04 04:07:31;;;;;;;14.15;8.18;;;5.10;99.90;;;;;;5099606;28;20043;-65
2021/12/04 04:09:57;;;;;;;16.58;8.68;;;5.50;99.90;;;;;;5117763;28;20486;-66
2021/12/04 04:12:22;;;;;;;14.35;9.00;;;5.20;99.90;;;;;;5099523;28;20047;-65
2021/12/04 04:14:48;;;;;;;15.32;8.07;;;5.40;99.90;;;;;;5082589;28;20081;-65
2021/12/04 04:17:14;;;;;;;12.68;7.45;;;5.00;99.90;;;;;;5100477;28;20058;-65
2021/12/04 04:19:40;;;;;;;14.27;7.72;;;5.20;99.90;;;;;;5117662;28;20051;-65
2021/12/04 04:22:05;;;;;;;13.95;7.68;;;5.00;99.90;;;;;;5099566;28;20452;-65
2021/12/04 04:24:32;;;;;;;11.18;6.93;;;5.50;99.90;;;;;;5117512;28;20050;-65
2021/12/04 04:26:58;;;;;;;11.60;7.03;;;5.40;99.90;;;;;;5099220;28;20044;-65
2021/12/04 04:29:25;;;;;;;11.70;7.65;;;4.90;99.90;;;;;;5117334;28;20080;-65
2021/12/04 04:31:54;;;;;;;10.27;6.80;;;5.20;99.90;;;;;;5099393;28;20376;-65
2021/12/04 04:34:28;;;;;;;12.40;7.32;;;5.00;99.90;;;;;;5082470;28;20043;-65
2021/12/04 05:12:21;;;;;;;11.38;6.20;;;5.00;99.90;;;;;;5116565;28;20047;-65
2021/12/04 05:14:53;;;;;;;12.27;6.50;;;5.20;99.90;;;;;;5117200;28;20043;-65
2021/12/04 05:17:53;;;;;;;12.73;6.60;;;4.90;99.90;;;;;;5099649;28;20047;-65
2021/12/04 05:20:05;;;;;;;10.35;6.10;;;5.10;99.90;;;;;;5100711;28;20544;-65
2021/12/04 05:22:32;;;;;;;11.75;6.07;;;5.00;99.90;;;;;;5116132;28;20046;-66
2021/12/04 05:24:58;;;;;;;11.10;6.15;;;5.20;99.90;;;;;;5081615;28;20055;-66
2021/12/04 05:27:23;;;;;;;11.27;5.93;;;5.10;99.90;;;;;;5097850;28;20040;-66
2021/12/04 05:29:49;;;;;;;11.95;6.45;;;5.00;99.90;;;;;;5098340;28;20044;-65
2021/12/04 05:32:16;;;;;;;9.82;6.35;;;5.50;99.90;;;;;;5098132;28;20050;-65
2021/12/04 05:34:42;;;;;;;10.63;6.20;;;5.70;99.90;;;;;;5116194;28;20059;-65
2021/12/04 05:37:08;;;;;;;10.50;6.20;;;5.10;99.90;;;;;;5081157;28;20557;-65
2021/12/04 05:39:35;;;;;;;10.43;5.53;;;5.20;99.90;;;;;;5081385;28;20090;-66
2021/12/04 05:42:01;;;;;;;11.45;5.75;;;5.30;99.90;;;;;;5116045;28;20048;-65
2021/12/04 05:44:29;;;;;;;11.75;6.03;;;5.00;99.90;;;;;;5116043;28;20044;-65
2021/12/04 05:47:08;;;;;;;11.43;5.90;;;5.10;99.90;;;;;;5116018;28;20054;-65
2021/12/04 05:52:13;;;;;;;11.55;6.32;;;5.30;99.90;;;;;;5097835;28;20140;-66
2021/12/04 05:57:06;;;;;;;11.38;6.13;;;5.80;99.90;;;;;;5116380;28;20479;-65
2021/12/04 05:59:32;;;;;;;11.98;6.70;;;5.00;99.90;;;;;;5097460;28;20060;-66
2021/12/04 06:01:58;;;;;;;13.48;6.40;;;5.20;99.90;;;;;;5097652;28;20117;-65
2021/12/04 06:04:24;;;;;;;12.10;6.55;;;5.00;99.90;;;;;;5116316;28;20116;-65
2021/12/04 06:06:50;;;;;;;10.07;6.05;;;5.00;99.90;;;;;;5116038;28;20043;-65
2021/12/04 06:09:16;;;;;;;9.75;5.85;;;5.20;99.90;;;;;;5115176;28;20501;-65
2021/12/04 06:11:42;;;;;;;12.40;6.28;;;5.00;99.90;;;;;;5115500;28;20040;-65
2021/12/04 06:14:08;;;;;;;11.02;5.75;;;5.00;99.90;;;;;;5097283;28;20090;-65
2021/12/04 06:16:34;;;;;;;12.30;6.70;;;5.00;99.90;;;;;;5115472;28;20047;-65
2021/12/04 06:19:10;;;;;;;11.23;6.85;;;4.80;99.90;;;;;;5115958;28;20047;-65
2021/12/04 06:24:20;;;;;;;15.88;7.22;;;4.90;99.90;;;;;;5115264;28;20059;-65
2021/12/04 06:26:46;;;;;;;11.50;6.05;;;5.10;99.90;;;;;;5080145;28;20142;-65
2021/12/04 06:29:11;;;;;;;14.27;6.65;;;4.80;99.90;;;;;;5096882;28;20086;-65
2021/12/04 06:31:37;;;;;;;12.90;6.63;;;4.90;99.90;;;;;;5115326;28;20055;-65
2021/12/04 06:34:03;;;;;;;14.30;7.13;;;4.90;99.90;;;;;;5115123;28;20043;-65
2021/12/04 06:36:30;;;;;;;14.63;7.13;;;5.20;99.90;;;;;;5115019;28;20518;-65
2021/12/04 06:38:56;;;;;;;15.98;7.13;;;4.90;99.90;;;;;;5096747;28;20058;-65
2021/12/04 06:41:22;;;;;;;14.52;7.07;;;5.50;99.90;;;;;;5114922;28;20483;-65
2021/12/04 06:43:50;;;;;;;14.07;7.22;;;5.50;99.90;;;;;;5096745;28;20415;-65
2021/12/04 06:46:18;;;;;;;15.25;7.50;;;5.20;99.90;;;;;;5114894;28;20051;-65
2021/12/04 06:48:58;;;;;;;15.98;7.68;;;5.50;99.90;;;;;;5115531;28;20168;-65
2021/12/04 06:51:31;;;;;;;14.32;7.13;;;5.20;99.90;;;;;;5114875;28;20513;-65
2021/12/04 06:56:41;;;;;;;13.25;7.00;;;5.10;99.90;;;;;;5114810;28;20372;-66
2021/12/04 06:59:10;;;;;;;11.73;6.90;;;5.80;99.90;;;;;;5096714;28;20080;-65
2021/12/04 07:01:37;;;;;;;16.10;6.78;;;5.20;99.90;;;;;;5097585;28;20035;-66
2021/12/04 07:04:03;;;;;;;13.18;6.97;;;4.90;99.90;;;;;;5115149;28;20039;-66
2021/12/04 07:06:29;;;;;;;12.65;6.35;;;4.90;99.90;;;;;;5114228;28;20487;-66
2021/12/04 07:08:57;;;;;;;9.80;6.45;;;5.00;99.90;;;;;;5114305;28;20089;-66
2021/12/04 07:11:23;;;;;;;11.65;6.45;;;5.50;99.90;;;;;;5114437;28;20051;-65
2021/12/04 07:13:49;;;;;;;10.73;6.97;;;5.40;99.90;;;;;;5114394;28;20052;-66
2021/12/04 07:16:18;;;;;;;13.30;6.40;;;5.00;99.90;;;;;;5114326;28;20092;-66
2021/12/04 07:18:43;;;;;;;12.32;6.90;;;5.00;99.90;;;;;;5114632;28;20048;-65
2021/12/04 07:21:10;;;;;;;13.65;6.47;;;5.00;99.90;;;;;;5115164;28;20088;-66
2021/12/04 07:23:37;;;;;;;10.13;5.97;;;5.00;99.90;;;;;;5114318;28;20044;-65
2021/12/04 07:26:04;;;;;;;12.95;6.05;;;5.20;99.90;;;;;;5096970;28;20052;-66
2021/12/04 07:28:30;;;;;;;13.27;6.65;;;5.30;99.90;;;;;;5079933;28;20039;-65
2021/12/04 07:30:56;;;;;;;15.95;7.57;;;5.30;99.90;;;;;;5114464;28;20589;-66
2021/12/04 07:33:21;;;;;;;15.07;7.25;;;5.30;99.90;;;;;;5114188;28;20483;-66
2021/12/04 07:35:47;;;;;;;16.52;7.85;;;5.00;99.90;;;;;;5114155;28;20361;-66
2021/12/04 07:38:14;;;;;;;17.30;7.57;;;5.00;99.90;;;;;;5114887;28;20046;-66
2021/12/04 07:40:41;;;;;;;16.23;7.38;;;5.30;99.90;;;;;;5118820;28;20428;-65
2021/12/04 07:43:06;;;;;;;16.40;7.47;;;5.10;99.90;;;;;;5118424;28;20039;-66
2021/12/04 07:45:33;;;;;;;17.05;8.50;;;5.30;99.90;;;;;;5100445;28;20040;-66
2021/12/04 07:47:59;;;;;;;16.92;8.60;;;5.40;99.90;;;;;;5099992;28;20050;-66
2021/12/04 07:50:24;;;;;;;17.88;8.05;;;5.60;99.90;;;;;;5119093;28;20071;-66
2021/12/04 07:52:50;;;;;;;18.27;7.88;;;5.00;99.90;;;;;;5100867;28;20102;-66
2021/12/04 07:55:17;;;;;;;40.65;13.95;;;5.00;99.90;;;;;;5118454;28;20499;-66
2021/12/04 07:57:42;;;;;;;15.70;7.90;;;5.40;99.90;;;;;;5118124;28;20050;-65
2021/12/04 08:00:13;;;;;;;14.30;7.35;;;5.10;99.90;;;;;;5118867;28;20039;-65
2021/12/04 08:02:40;;;;;;;13.77;7.00;;;5.30;99.90;;;;;;5118291;28;20043;-65
2021/12/04 08:05:07;;;;;;;16.23;6.97;;;5.60;99.90;;;;;;5117948;28;20054;-66
2021/12/04 08:07:34;;;;;;;15.88;7.32;;;5.00;99.90;;;;;;5117982;28;20499;-66
2021/12/04 08:09:59;;;;;;;12.40;6.90;;;5.40;99.90;;;;;;5117880;28;20285;-66
2021/12/04 08:12:25;;;;;;;11.98;6.90;;;5.50;99.90;;;;;;5117756;28;20098;-66
2021/12/04 08:14:53;;;;;;;12.73;6.57;;;5.40;99.90;;;;;;5117805;28;20135;-65
2021/12/04 08:17:19;;;;;;;13.13;6.40;;;5.50;99.90;;;;;;5118035;28;20047;-65
2021/12/04 08:19:45;;;;;;;12.73;7.70;;;5.50;99.90;;;;;;5117671;28;20099;-65
2021/12/04 08:22:11;;;;;;;12.63;7.30;;;5.10;99.90;;;;;;5118479;28;20122;-65
2021/12/04 08:24:36;;;;;;;10.57;6.63;;;5.10;99.90;;;;;;5117554;28;20051;-65
2021/12/04 08:27:03;;;;;;;11.02;6.72;;;5.30;99.90;;;;;;5117388;28;20048;-65
2021/12/04 08:29:29;;;;;;;12.25;6.00;;;5.20;99.90;;;;;;5117271;28;20042;-65
2021/12/04 08:31:55;;;;;;;13.30;6.63;;;5.20;99.90;;;;;;5117522;28;20074;-66
2021/12/04 08:34:23;;;;;;;11.32;6.20;;;5.40;99.90;;;;;;5117473;28;20104;-65
2021/12/04 08:36:51;;;;;;;12.18;6.53;;;5.30;99.90;;;;;;5117404;28;20136;-65
2021/12/04 08:39:18;;;;;;;11.20;5.97;;;5.40;99.90;;;;;;5118020;28;20044;-65
2021/12/04 08:41:44;;;;;;;11.60;6.53;;;6.20;99.90;;;;;;5118159;28;20047;-65
2021/12/04 08:44:10;;;;;;;10.20;6.05;;;5.40;99.90;;;;;;5117284;28;20100;-65
2021/12/04 08:46:38;;;;;;;10.23;5.93;;;5.60;99.90;;;;;;5117800;28;20075;-65
2021/12/04 08:49:05;;;;;;;9.05;5.80;;;5.30;99.90;;;;;;5117163;28;20116;-65
2021/12/04 08:51:30;;;;;;;10.35;6.35;;;5.50;99.90;;;;;;5116677;28;20062;-65
2021/12/04 08:53:56;;;;;;;9.27;6.30;;;5.70;99.90;;;;;;5117347;28;20039;-65
2021/12/04 08:56:22;;;;;;;10.13;5.82;;;5.40;99.90;;;;;;5117349;28;20050;-65
2021/12/04 08:58:48;;;;;;;10.32;5.70;;;5.50;99.90;;;;;;5116812;28;20047;-65
2021/12/04 09:01:24;;;;;;;10.25;6.32;;;5.50;99.90;;;;;;5117134;28;20555;-65
2021/12/04 09:03:54;;;;;;;9.25;5.75;;;5.60;99.90;;;;;;5117422;28;20063;-65
2021/12/04 09:06:20;;;;;;;11.20;6.03;;;5.20;99.90;;;;;;5117607;28;20420;-66
2021/12/04 09:08:47;;;;;;;8.98;6.28;;;5.90;99.90;;;;;;5116535;28;20082;-65
2021/12/04 09:11:19;;;;;;;10.43;6.47;;;5.60;99.90;;;;;;5117280;28;20047;-65
2021/12/04 09:13:46;;;;;;;8.55;5.80;;;5.30;99.90;;;;;;5117344;28;20083;-66
2021/12/04 09:16:13;;;;;;;10.30;5.72;;;5.30;99.90;;;;;;5116606;28;20054;-66
2021/12/04 09:18:38;;;;;;;10.80;6.90;;;5.40;99.90;;;;;;5116584;28;20126;-66
2021/12/04 09:21:05;;;;;;;9.63;6.10;;;6.80;99.90;;;;;;5116254;28;20185;-66
2021/12/04 09:23:36;;;;;;;11.10;6.22;;;5.40;99.90;;;;;;5116462;28;20098;-66
2021/12/04 09:26:03;;;;;;;9.13;5.97;;;5.70;99.90;;;;;;5117117;28;20494;-65
2021/12/04 09:28:45;;;;;;;9.35;6.43;;;5.40;99.90;;;;;;5116205;28;20043;-66
2021/12/04 10:12:24;;;;;;;12.38;7.18;;;5.60;99.90;;;;;;5115677;28;20474;-65
2021/12/04 10:34:35;;;;;;;10.18;6.18;;;5.60;99.90;;;;;;5115526;28;20059;-66
2021/12/04 10:37:14;;;;;;;11.90;6.10;;;5.60;99.90;;;;;;5114812;28;20047;-66
2021/12/04 10:39:40;;;;;;;12.57;6.88;;;5.70;99.90;;;;;;5115419;28;20036;-65
2021/12/04 10:42:13;;;;;;;12.63;7.07;;;5.80;99.90;;;;;;5114712;28;20051;-65
2021/12/04 10:44:44;;;;;;;15.63;7.40;;;5.70;99.90;;;;;;5114482;28;20495;-66
2021/12/04 10:47:12;;;;;;;13.95;7.15;;;5.70;99.90;;;;;;5115622;28;20130;-65
2021/12/04 11:28:45;;;;;;;22.77;10.57;;;6.10;99.90;;;;;;5114324;28;20047;-65
2021/12/04 11:36:58;;;;;;;25.48;11.52;;;6.00;99.90;;;;;;5096028;28;20058;-65
2021/12/04 11:42:02;;;;;;;24.63;11.95;;;5.60;99.90;;;;;;5113933;28;20052;-65
2021/12/04 11:44:43;;;;;;;24.83;11.98;;;6.00;99.90;;;;;;5113859;28;20120;-65
2021/12/04 11:47:10;;;;;;;29.05;11.88;;;5.80;99.90;;;;;;5114723;28;20044;-65
2021/12/04 11:49:36;;;;;;;25.73;12.10;;;5.90;99.90;;;;;;5113697;28;20407;-65
2021/12/04 11:52:11;;;;;;;18.88;9.93;;;6.00;99.90;;;;;;5113911;28;20043;-65
2021/12/04 11:54:46;;;;;;;22.95;11.35;;;5.60;99.90;;;;;;5114465;28;20048;-65
2021/12/04 11:57:14;;;;;;;31.65;11.45;;;6.00;99.90;;;;;;5113812;28;20467;-65
2021/12/04 11:59:43;;;;;;;24.20;11.20;;;5.90;99.90;;;;;;5113249;28;20083;-66
2021/12/04 12:02:17;;;;;;;22.02;10.82;;;6.00;99.90;;;;;;5114388;28;20040;-65
2021/12/04 12:04:50;;;;;;;23.00;11.60;;;6.00;99.90;;;;;;5113720;28;20043;-65
2021/12/04 12:07:17;;;;;;;26.03;12.43;;;5.70;99.90;;;;;;5096164;28;20040;-66
2021/12/04 12:09:46;;;;;;;23.77;12.10;;;6.50;99.90;;;;;;5114182;28;20304;-66
2021/12/04 12:12:15;;;;;;;22.77;12.27;;;5.60;99.90;;;;;;5113630;28;20071;-66
2021/12/04 12:15:03;;;;;;;25.38;12.35;;;5.70;99.90;;;;;;5113658;28;20071;-66
2021/12/04 12:17:35;;;;;;;24.10;11.43;;;5.90;99.90;;;;;;5113693;28;20082;-66
2021/12/04 12:20:03;;;;;;;27.05;13.23;;;5.70;99.90;;;;;;5114215;28;20039;-66
2021/12/04 12:22:51;;;;;;;25.88;12.63;;;5.50;99.90;;;;;;5113772;28;20058;-66
2021/12/04 12:33:35;;;;;;;20.27;11.82;;;6.10;99.90;;;;;;5117860;28;20056;-66
2021/12/04 12:36:15;;;;;;;19.88;11.10;;;5.60;99.90;;;;;;5117812;28;20047;-66
2021/12/04 12:38:55;;;;;;;23.58;12.27;;;5.70;99.90;;;;;;5117927;28;20116;-66
2021/12/04 12:41:24;;;;;;;26.60;11.98;;;5.80;99.90;;;;;;5117647;28;20040;-66
2021/12/04 12:43:53;;;;;;;25.60;13.02;;;6.10;99.90;;;;;;5117883;28;20081;-66
2021/12/04 12:46:31;;;;;;;22.58;11.90;;;5.70;99.90;;;;;;5117034;28;20039;-66
2021/12/04 12:48:56;;;;;;;22.45;11.93;;;5.80;99.90;;;;;;5116978;28;20127;-66
2021/12/04 12:51:34;;;;;;;22.40;10.93;;;6.10;99.90;;;;;;5116965;28;20554;-66
2021/12/04 12:54:06;;;;;;;23.55;11.07;;;5.80;99.90;;;;;;5099257;28;20467;-66
2021/12/04 12:56:37;;;;;;;21.08;11.05;;;5.90;99.90;;;;;;5116501;28;20109;-66
2021/12/04 12:59:09;;;;;;;22.17;11.80;;;5.80;99.90;;;;;;5117316;28;20036;-66
2021/12/04 13:13:43;;;;;;;;;;;6.30;99.90;;;;;;5116926;28;20072;-66
2021/12/04 13:16:19;;;;;;;19.95;11.50;;;5.70;99.90;;;;;;5099354;28;19926;-66
2021/12/04 13:18:52;;;;;;;20.92;11.70;;;6.90;99.90;;;;;;5115990;28;20108;-66
2021/12/04 13:21:18;;;;;;;19.88;12.02;;;6.60;99.90;;;;;;5098666;28;20066;-66
2021/12/04 13:23:49;;;;;;;19.75;11.80;;;5.60;99.90;;;;;;5116288;28;20042;-65
2021/12/04 13:26:16;;;;;;;21.42;11.45;;;5.80;99.90;;;;;;5115758;28;20131;-65
2021/12/04 13:28:45;;;;;;;22.13;11.82;;;5.80;99.90;;;;;;5116093;28;20445;-66
2021/12/04 13:31:11;;;;;;;24.67;12.90;;;6.20;99.90;;;;;;5115613;28;20127;-65
2021/12/04 13:33:39;;;;;;;24.70;12.98;;;6.20;99.90;;;;;;5116096;28;20388;-65
2021/12/04 13:36:16;;;;;;;25.55;13.38;;;5.70;99.90;;;;;;5115601;28;20054;-66
2021/12/04 13:38:42;;;;;;;23.73;12.45;;;5.80;99.90;;;;;;5115394;28;20058;-65
2021/12/04 13:41:08;;;;;;;23.15;11.98;;;5.90;99.90;;;;;;5115704;28;20044;-65
2021/12/04 13:43:34;;;;;;;23.08;12.55;;;5.60;99.90;;;;;;5115682;28;20069;-65
2021/12/04 13:46:03;;;;;;;34.63;13.60;;;6.00;99.90;;;;;;5115571;28;20126;-65
2021/12/04 13:48:30;;;;;;;27.48;13.52;;;5.80;99.90;;;;;;5115999;28;20036;-66
2021/12/04 13:50:56;;;;;;;24.77;13.20;;;5.80;99.90;;;;;;5097804;28;20043;-66
2021/12/04 13:53:30;;;;;;;23.90;13.10;;;5.70;99.90;;;;;;5115489;28;20040;-65
2021/12/04 13:56:11;;;;;;;23.55;12.75;;;6.00;99.90;;;;;;5097213;28;20050;-65
2021/12/04 13:59:05;;;;;;;23.60;12.40;;;5.80;99.90;;;;;;5098152;28;20123;-66
2021/12/04 14:01:41;;;;;;;28.80;14.00;;;6.00;99.90;;;;;;5112258;28;20059;-66
2021/12/04 14:04:15;;;;;;;25.38;12.82;;;6.20;99.90;;;;;;5115317;28;20519;-66
2021/12/04 14:06:55;;;;;;;29.50;12.85;;;5.90;99.90;;;;;;5098014;28;20096;-66
2021/12/04 14:09:30;;;;;;;26.02;12.18;;;5.90;99.90;;;;;;5115328;28;20120;-66
2021/12/04 14:11:56;;;;;;;25.40;11.13;;;6.10;99.90;;;;;;5115623;28;20101;-66
2021/12/04 14:14:25;;;;;;;26.42;13.23;;;5.70;99.90;;;;;;5114954;28;20071;-65
2021/12/04 14:16:54;;;;;;;23.40;11.73;;;6.00;99.90;;;;;;5080788;28;20048;-66
2021/12/04 14:19:21;;;;;;;27.05;12.73;;;6.00;99.90;;;;;;5115736;28;20040;-66
2021/12/04 14:22:04;;;;;;;25.75;11.32;;;6.20;99.90;;;;;;5114893;28;20036;-66
2021/12/04 14:24:37;;;;;;;24.63;12.30;;;5.70;99.90;;;;;;5115464;28;20375;-66
2021/12/04 14:27:05;;;;;;;25.40;11.75;;;5.70;99.90;;;;;;5115186;28;20066;-66
2021/12/04 14:29:34;;;;;;;27.02;11.45;;;5.70;99.90;;;;;;5114652;28;20061;-66
2021/12/04 14:32:00;;;;;;;25.17;11.77;;;5.80;99.90;;;;;;5115240;28;20043;-66
2021/12/04 14:34:30;;;;;;;27.33;11.60;;;5.90;99.90;;;;;;5114885;28;20147;-66
2021/12/04 14:37:09;;;;;;;28.02;13.40;;;6.00;99.90;;;;;;5096913;28;20105;-66
2021/12/04 14:39:34;;;;;;;26.45;12.63;;;5.80;99.90;;;;;;5115307;28;20039;-65
2021/12/04 14:42:19;;;;;;;28.70;12.15;;;5.80;99.90;;;;;;5096550;28;20523;-65
2021/12/04 14:45:00;;;;;;;24.92;11.88;;;5.80;99.90;;;;;;5114484;28;20035;-65
2021/12/04 14:47:32;;;;;;;24.95;12.55;;;6.00;99.90;;;;;;5114673;28;20089;-65
2021/12/04 14:50:00;;;;;;;22.98;10.73;;;5.90;99.90;;;;;;5114671;28;20059;-66
2021/12/04 14:52:29;;;;;;;22.73;10.30;;;6.00;99.90;;;;;;5096200;28;20054;-66
2021/12/04 14:54:55;;;;;;;23.80;11.32;;;5.70;99.90;;;;;;5114205;28;20050;-65
2021/12/04 14:57:25;;;;;;;22.70;11.02;;;5.70;99.90;;;;;;5114662;28;20051;-66
2021/12/04 15:00:01;;;;;;;25.67;10.18;;;5.90;99.90;;;;;;5114741;28;20062;-66
2021/12/04 15:02:27;;;;;;;20.35;9.35;;;5.70;99.90;;;;;;5114635;28;20044;-65
2021/12/04 15:04:53;;;;;;;22.60;10.30;;;5.60;99.90;;;;;;5114284;28;20124;-65
2021/12/04 15:07:26;;;;;;;23.08;9.70;;;5.60;99.90;;;;;;5113995;28;20038;-65
2021/12/04 15:09:52;;;;;;;22.27;10.23;;;5.80;99.90;;;;;;5114029;28;20086;-65
2021/12/04 15:12:27;;;;;;;20.00;9.13;;;6.00;99.90;;;;;;5095757;28;20035;-66
2021/12/04 15:14:58;;;;;;;17.85;8.80;;;5.80;99.90;;;;;;5114501;28;20035;-66
2021/12/04 15:17:25;;;;;;;19.92;9.68;;;5.80;99.90;;;;;;5114458;28;20040;-66
2021/12/04 15:19:53;;;;;;;24.50;11.77;;;5.90;99.90;;;;;;5095736;28;20050;-65
2021/12/04 15:22:42;;;;;;;27.58;13.60;;;6.10;99.90;;;;;;5113861;28;20054;-65
2021/12/04 15:25:15;;;;;;;24.73;13.77;;;5.60;99.90;;;;;;5096273;28;20122;-66
2021/12/04 15:27:41;;;;;;;28.92;14.68;;;5.70;99.90;;;;;;5114427;28;20035;-66
2021/12/04 15:30:11;;;;;;;34.70;19.05;;;5.90;99.90;;;;;;5113702;28;20468;-65
2021/12/04 15:32:40;;;;;;;53.88;31.48;;;5.80;99.90;;;;;;5113829;28;20040;-65
2021/12/04 15:35:27;;;;;;;32.58;17.83;;;6.80;99.90;;;;;;5113744;28;20122;-65
2021/12/04 15:38:03;;;;;;;29.45;14.80;;;5.70;99.90;;;;;;5113624;28;20043;-66
2021/12/04 15:40:46;;;;;;;30.58;14.32;;;5.70;99.90;;;;;;5095634;28;20073;-65
2021/12/04 15:43:43;;;;;;;32.20;15.65;;;6.00;99.90;;;;;;5095991;28;20082;-65
2021/12/04 15:54:52;;;;;;;34.25;15.43;;;6.30;99.90;;;;;;5114342;28;20069;-65
2021/12/04 15:57:21;;;;;;;32.17;16.08;;;5.70;99.90;;;;;;5095403;28;20055;-65
2021/12/04 15:59:51;;;;;;;35.60;16.38;;;5.80;99.90;;;;;;5113977;28;20046;-65
2021/12/04 16:02:21;;;;;;;38.90;18.15;;;5.60;99.90;;;;;;5117775;28;20046;-65
2021/12/04 16:04:49;;;;;;;36.80;17.45;;;6.00;99.90;;;;;;5099354;28;20059;-65
2021/12/04 16:07:28;;;;;;;52.40;35.15;;;6.20;99.90;;;;;;5118055;28;20425;-65
2021/12/04 16:09:54;;;;;;;42.67;19.30;;;5.70;99.90;;;;;;5117896;28;20039;-66
2021/12/04 16:12:22;;;;;;;38.92;21.05;;;5.70;99.90;;;;;;5117459;28;20083;-66
2021/12/04 16:14:55;;;;;;;47.03;32.97;;;5.70;99.90;;;;;;5117359;28;20093;-65
2021/12/04 16:17:21;;;;;;;41.95;27.30;;;6.00;99.90;;;;;;5118029;28;20049;-65
2021/12/04 16:19:51;;;;;;;38.67;26.13;;;5.90;99.90;;;;;;5117323;28;20043;-65